sensor_id;sensor_type;location;lat;lon;timestamp;P1;P2;P0
61815;PMS5003;57055;-35.296;149.168;2023-05-07T00:00:34;0;0;
61815;PMS5003;57055;-35.296;149.168;2023-05-07T00:03:03;0;0;
61815;PMS5003;57055;-35.296;149.168;2023-05-07T00:05:31;0;0;
61815;PMS5003;57055;-35.296;149.168;2023-05-07T00:08:00;0;0;
61815;PMS5003;57055;-35.296;149.168;2023-05-07T00:10:29;0;0;
61815;PMS5003;57055;-35.296;149.168;2023-05-07T00:12:58;0;0;
61815;PMS5003;57055;-35.296;149.168;2023-05-07T00:15:27;0;0;
61815;PMS5003;57055;-35.296;149.168;2023-05-07T00:17:55;0;0;
61815;PMS5003;57055;-35.296;149.168;2023-05-07T00:20:25;0;0;
61815;PMS5003;57055;-35.296;149.168;2023-05-07T00:22:54;0;0;
61815;PMS5003;57055;-35.296;149.168;2023-05-07T00:25:23;0;0;
61815;PMS5003;57055;-35.296;149.168;2023-05-07T00:27:51;0;0;
61815;PMS5003;57055;-35.296;149.168;2023-05-07T00:30:20;0;0;
61815;PMS5003;57055;-35.296;149.168;2023-05-07T00:32:50;0;0;
61815;PMS5003;57055;-35.296;149.168;2023-05-07T00:35:18;0;0;
61815;PMS5003;57055;-35.296;149.168;2023-05-07T00:37:47;0;0;
61815;PMS5003;57055;-35.296;149.168;2023-05-07T00:40:16;0;0;
61815;PMS5003;57055;-35.296;149.168;2023-05-07T00:42:45;0;0;
61815;PMS5003;57055;-35.296;149.168;2023-05-07T00:45:14;0;0;
61815;PMS5003;57055;-35.296;149.168;2023-05-07T00:47:42;0;0;
61815;PMS5003;57055;-35.296;149.168;2023-05-07T00:50:11;0;0;
61815;PMS5003;57055;-35.296;149.168;2023-05-07T00:52:41;0;0;
61815;PMS5003;57055;-35.296;149.168;2023-05-07T00:55:10;0;0;
61815;PMS5003;57055;-35.296;149.168;2023-05-07T00:57:40;0;0;
61815;PMS5003;57055;-35.296;149.168;2023-05-07T01:00:09;0;0;
61815;PMS5003;57055;-35.296;149.168;2023-05-07T01:02:39;0;0;
61815;PMS5003;57055;-35.296;149.168;2023-05-07T01:05:10;0;0;
61815;PMS5003;57055;-35.296;149.168;2023-05-07T01:07:40;0;0;
61815;PMS5003;57055;-35.296;149.168;2023-05-07T01:10:10;0;0;
61815;PMS5003;57055;-35.296;149.168;2023-05-07T01:12:40;0;0;
61815;PMS5003;57055;-35.296;149.168;2023-05-07T01:15:10;0;0;
61815;PMS5003;57055;-35.296;149.168;2023-05-07T01:17:41;0;0;
61815;PMS5003;57055;-35.296;149.168;2023-05-07T01:20:11;0;0;
61815;PMS5003;57055;-35.296;149.168;2023-05-07T01:22:40;0;0;
61815;PMS5003;57055;-35.296;149.168;2023-05-07T01:25:10;0;0;
61815;PMS5003;57055;-35.296;149.168;2023-05-07T01:27:38;0;0;
61815;PMS5003;57055;-35.296;149.168;2023-05-07T01:30:07;0;0;
61815;PMS5003;57055;-35.296;149.168;2023-05-07T01:32:38;0;0;
61815;PMS5003;57055;-35.296;149.168;2023-05-07T01:35:11;0;0;
61815;PMS5003;57055;-35.296;149.168;2023-05-07T01:37:43;0;0;
61815;PMS5003;57055;-35.296;149.168;2023-05-07T01:40:12;0;0;
61815;PMS5003;57055;-35.296;149.168;2023-05-07T01:42:43;0;0;
61815;PMS5003;57055;-35.296;149.168;2023-05-07T01:45:12;0;0;
61815;PMS5003;57055;-35.296;149.168;2023-05-07T01:47:42;0;0;
61815;PMS5003;57055;-35.296;149.168;2023-05-07T01:50:12;1;0;
61815;PMS5003;57055;-35.296;149.168;2023-05-07T01:52:44;0;0;
61815;PMS5003;57055;-35.296;149.168;2023-05-07T01:55:14;0;0;
61815;PMS5003;57055;-35.296;149.168;2023-05-07T01:57:42;0;0;
61815;PMS5003;57055;-35.296;149.168;2023-05-07T02:00:11;0;0;
61815;PMS5003;57055;-35.296;149.168;2023-05-07T02:02:41;0;0;
61815;PMS5003;57055;-35.296;149.168;2023-05-07T02:05:09;0;0;
61815;PMS5003;57055;-35.296;149.168;2023-05-07T02:07:38;0;0;
61815;PMS5003;57055;-35.296;149.168;2023-05-07T02:10:07;0;0;
61815;PMS5003;57055;-35.296;149.168;2023-05-07T02:12:37;0;0;
61815;PMS5003;57055;-35.296;149.168;2023-05-07T02:15:06;0;0;
61815;PMS5003;57055;-35.296;149.168;2023-05-07T02:17:35;0;0;
61815;PMS5003;57055;-35.296;149.168;2023-05-07T02:20:07;1;1;
61815;PMS5003;57055;-35.296;149.168;2023-05-07T02:22:36;1;1;
61815;PMS5003;57055;-35.296;149.168;2023-05-07T02:25:05;0;0;
61815;PMS5003;57055;-35.296;149.168;2023-05-07T02:27:34;1;1;
61815;PMS5003;57055;-35.296;149.168;2023-05-07T02:30:03;1;1;
61815;PMS5003;57055;-35.296;149.168;2023-05-07T02:32:34;0;0;
61815;PMS5003;57055;-35.296;149.168;2023-05-07T02:35:03;0;0;
61815;PMS5003;57055;-35.296;149.168;2023-05-07T02:37:32;0;0;
61815;PMS5003;57055;-35.296;149.168;2023-05-07T02:40:01;0;0;
61815;PMS5003;57055;-35.296;149.168;2023-05-07T02:42:30;0;0;
61815;PMS5003;57055;-35.296;149.168;2023-05-07T02:44:59;0;0;
61815;PMS5003;57055;-35.296;149.168;2023-05-07T02:47:28;0;0;
61815;PMS5003;57055;-35.296;149.168;2023-05-07T02:49:57;0;0;
61815;PMS5003;57055;-35.296;149.168;2023-05-07T02:52:26;0;0;
61815;PMS5003;57055;-35.296;149.168;2023-05-07T02:54:54;0;0;
61815;PMS5003;57055;-35.296;149.168;2023-05-07T02:57:23;0;0;
61815;PMS5003;57055;-35.296;149.168;2023-05-07T02:59:52;0;0;
61815;PMS5003;57055;-35.296;149.168;2023-05-07T03:02:21;0;0;
61815;PMS5003;57055;-35.296;149.168;2023-05-07T03:04:49;0;0;
61815;PMS5003;57055;-35.296;149.168;2023-05-07T03:07:18;0;0;
61815;PMS5003;57055;-35.296;149.168;2023-05-07T03:09:47;0;0;
61815;PMS5003;57055;-35.296;149.168;2023-05-07T03:12:16;0;0;
61815;PMS5003;57055;-35.296;149.168;2023-05-07T03:14:45;0;0;
61815;PMS5003;57055;-35.296;149.168;2023-05-07T03:17:13;0;0;
61815;PMS5003;57055;-35.296;149.168;2023-05-07T03:19:42;1;0;
61815;PMS5003;57055;-35.296;149.168;2023-05-07T03:22:11;0;0;
61815;PMS5003;57055;-35.296;149.168;2023-05-07T03:24:40;1;1;
61815;PMS5003;57055;-35.296;149.168;2023-05-07T03:27:09;0;0;
61815;PMS5003;57055;-35.296;149.168;2023-05-07T03:29:37;0;0;
61815;PMS5003;57055;-35.296;149.168;2023-05-07T03:32:06;0;0;
61815;PMS5003;57055;-35.296;149.168;2023-05-07T03:34:37;1;1;
61815;PMS5003;57055;-35.296;149.168;2023-05-07T03:37:06;0;0;
61815;PMS5003;57055;-35.296;149.168;2023-05-07T03:39:35;1;0;
61815;PMS5003;57055;-35.296;149.168;2023-05-07T03:42:04;0;0;
61815;PMS5003;57055;-35.296;149.168;2023-05-07T03:44:33;0;0;
61815;PMS5003;57055;-35.296;149.168;2023-05-07T03:47:01;1;1;
61815;PMS5003;57055;-35.296;149.168;2023-05-07T03:49:30;0;0;
61815;PMS5003;57055;-35.296;149.168;2023-05-07T03:51:59;0;0;
61815;PMS5003;57055;-35.296;149.168;2023-05-07T03:54:28;0;0;
61815;PMS5003;57055;-35.296;149.168;2023-05-07T03:56:57;0;0;
61815;PMS5003;57055;-35.296;149.168;2023-05-07T03:59:25;0;0;
61815;PMS5003;57055;-35.296;149.168;2023-05-07T04:01:54;0;0;
61815;PMS5003;57055;-35.296;149.168;2023-05-07T04:04:23;1;1;
61815;PMS5003;57055;-35.296;149.168;2023-05-07T04:06:52;0;0;
61815;PMS5003;57055;-35.296;149.168;2023-05-07T04:09:21;0;0;
61815;PMS5003;57055;-35.296;149.168;2023-05-07T04:11:49;0;0;
61815;PMS5003;57055;-35.296;149.168;2023-05-07T04:14:18;0;0;
61815;PMS5003;57055;-35.296;149.168;2023-05-07T04:16:47;0;0;
61815;PMS5003;57055;-35.296;149.168;2023-05-07T04:19:16;0;0;
61815;PMS5003;57055;-35.296;149.168;2023-05-07T04:21:45;0;0;
61815;PMS5003;57055;-35.296;149.168;2023-05-07T04:24:13;0;0;
61815;PMS5003;57055;-35.296;149.168;2023-05-07T04:26:42;1;0;
61815;PMS5003;57055;-35.296;149.168;2023-05-07T04:29:11;0;0;
61815;PMS5003;57055;-35.296;149.168;2023-05-07T04:31:40;0;0;
61815;PMS5003;57055;-35.296;149.168;2023-05-07T04:34:09;0;0;
61815;PMS5003;57055;-35.296;149.168;2023-05-07T04:36:39;0;0;
61815;PMS5003;57055;-35.296;149.168;2023-05-07T04:39:09;0;0;
61815;PMS5003;57055;-35.296;149.168;2023-05-07T04:41:38;0;0;
61815;PMS5003;57055;-35.296;149.168;2023-05-07T04:44:06;0;0;
61815;PMS5003;57055;-35.296;149.168;2023-05-07T04:46:35;1;0;
61815;PMS5003;57055;-35.296;149.168;2023-05-07T04:49:04;0;0;
61815;PMS5003;57055;-35.296;149.168;2023-05-07T04:51:33;0;0;
61815;PMS5003;57055;-35.296;149.168;2023-05-07T04:54:02;0;0;
61815;PMS5003;57055;-35.296;149.168;2023-05-07T04:56:30;0;0;
61815;PMS5003;57055;-35.296;149.168;2023-05-07T04:58:59;0;0;
61815;PMS5003;57055;-35.296;149.168;2023-05-07T05:01:28;0;0;
61815;PMS5003;57055;-35.296;149.168;2023-05-07T05:03:57;0;0;
61815;PMS5003;57055;-35.296;149.168;2023-05-07T05:06:26;0;0;
61815;PMS5003;57055;-35.296;149.168;2023-05-07T05:08:54;0;0;
61815;PMS5003;57055;-35.296;149.168;2023-05-07T05:11:23;2;1;
61815;PMS5003;57055;-35.296;149.168;2023-05-07T05:13:52;0;0;
61815;PMS5003;57055;-35.296;149.168;2023-05-07T05:16:21;0;0;
61815;PMS5003;57055;-35.296;149.168;2023-05-07T05:18:50;0;0;
61815;PMS5003;57055;-35.296;149.168;2023-05-07T05:21:19;0;0;
61815;PMS5003;57055;-35.296;149.168;2023-05-07T05:23:47;0;0;
61815;PMS5003;57055;-35.296;149.168;2023-05-07T05:26:16;0;0;
61815;PMS5003;57055;-35.296;149.168;2023-05-07T05:28:45;0;0;
61815;PMS5003;57055;-35.296;149.168;2023-05-07T05:31:14;0;0;
61815;PMS5003;57055;-35.296;149.168;2023-05-07T05:33:43;0;0;
61815;PMS5003;57055;-35.296;149.168;2023-05-07T05:36:12;0;0;
61815;PMS5003;57055;-35.296;149.168;2023-05-07T05:38:42;0;0;
61815;PMS5003;57055;-35.296;149.168;2023-05-07T05:41:11;0;0;
61815;PMS5003;57055;-35.296;149.168;2023-05-07T05:43:40;0;0;
61815;PMS5003;57055;-35.296;149.168;2023-05-07T05:46:09;2;0;
61815;PMS5003;57055;-35.296;149.168;2023-05-07T05:48:37;1;0;
61815;PMS5003;57055;-35.296;149.168;2023-05-07T05:51:06;0;0;
61815;PMS5003;57055;-35.296;149.168;2023-05-07T05:53:35;0;0;
61815;PMS5003;57055;-35.296;149.168;2023-05-07T05:56:04;2;0;
61815;PMS5003;57055;-35.296;149.168;2023-05-07T05:58:34;0;0;
61815;PMS5003;57055;-35.296;149.168;2023-05-07T06:01:03;0;0;
61815;PMS5003;57055;-35.296;149.168;2023-05-07T06:03:31;0;0;
61815;PMS5003;57055;-35.296;149.168;2023-05-07T06:06:00;0;0;
61815;PMS5003;57055;-35.296;149.168;2023-05-07T06:08:29;0;0;
61815;PMS5003;57055;-35.296;149.168;2023-05-07T06:10:58;0;0;
61815;PMS5003;57055;-35.296;149.168;2023-05-07T06:13:27;0;0;
61815;PMS5003;57055;-35.296;149.168;2023-05-07T06:15:56;0;0;
61815;PMS5003;57055;-35.296;149.168;2023-05-07T06:18:25;0;0;
61815;PMS5003;57055;-35.296;149.168;2023-05-07T06:20:54;0;0;
61815;PMS5003;57055;-35.296;149.168;2023-05-07T06:23:24;0;0;
61815;PMS5003;57055;-35.296;149.168;2023-05-07T06:25:53;0;0;
61815;PMS5003;57055;-35.296;149.168;2023-05-07T06:28:22;0;0;
61815;PMS5003;57055;-35.296;149.168;2023-05-07T06:30:51;0;0;
61815;PMS5003;57055;-35.296;149.168;2023-05-07T06:33:20;0;0;
61815;PMS5003;57055;-35.296;149.168;2023-05-07T06:35:49;0;0;
61815;PMS5003;57055;-35.296;149.168;2023-05-07T06:38:18;1;1;
61815;PMS5003;57055;-35.296;149.168;2023-05-07T06:40:49;1;1;
61815;PMS5003;57055;-35.296;149.168;2023-05-07T06:43:18;0;0;
61815;PMS5003;57055;-35.296;149.168;2023-05-07T06:45:47;0;0;
61815;PMS5003;57055;-35.296;149.168;2023-05-07T06:48:15;1;1;
61815;PMS5003;57055;-35.296;149.168;2023-05-07T06:50:44;0;0;
61815;PMS5003;57055;-35.296;149.168;2023-05-07T06:53:13;1;0;
61815;PMS5003;57055;-35.296;149.168;2023-05-07T06:55:42;0;0;
61815;PMS5003;57055;-35.296;149.168;2023-05-07T06:58:11;0;0;
61815;PMS5003;57055;-35.296;149.168;2023-05-07T07:00:40;0;0;
61815;PMS5003;57055;-35.296;149.168;2023-05-07T07:03:10;0;0;
61815;PMS5003;57055;-35.296;149.168;2023-05-07T07:05:40;0;0;
61815;PMS5003;57055;-35.296;149.168;2023-05-07T07:08:10;0;0;
61815;PMS5003;57055;-35.296;149.168;2023-05-07T07:10:38;0;0;
61815;PMS5003;57055;-35.296;149.168;2023-05-07T07:13:07;0;0;
61815;PMS5003;57055;-35.296;149.168;2023-05-07T07:15:36;0;0;
61815;PMS5003;57055;-35.296;149.168;2023-05-07T07:18:05;0;0;
61815;PMS5003;57055;-35.296;149.168;2023-05-07T07:20:34;0;0;
61815;PMS5003;57055;-35.296;149.168;2023-05-07T07:23:03;0;0;
61815;PMS5003;57055;-35.296;149.168;2023-05-07T07:25:31;0;0;
61815;PMS5003;57055;-35.296;149.168;2023-05-07T07:28:00;0;0;
61815;PMS5003;57055;-35.296;149.168;2023-05-07T07:30:29;0;0;
61815;PMS5003;57055;-35.296;149.168;2023-05-07T07:32:58;0;0;
61815;PMS5003;57055;-35.296;149.168;2023-05-07T07:35:27;0;0;
61815;PMS5003;57055;-35.296;149.168;2023-05-07T07:37:56;0;0;
61815;PMS5003;57055;-35.296;149.168;2023-05-07T07:40:24;0;0;
61815;PMS5003;57055;-35.296;149.168;2023-05-07T07:42:54;0;0;
61815;PMS5003;57055;-35.296;149.168;2023-05-07T07:45:23;0;0;
61815;PMS5003;57055;-35.296;149.168;2023-05-07T07:47:52;2;0;
61815;PMS5003;57055;-35.296;149.168;2023-05-07T07:50:21;0;0;
61815;PMS5003;57055;-35.296;149.168;2023-05-07T07:52:50;1;1;
61815;PMS5003;57055;-35.296;149.168;2023-05-07T07:55:19;2;2;
61815;PMS5003;57055;-35.296;149.168;2023-05-07T07:57:48;0;0;
61815;PMS5003;57055;-35.296;149.168;2023-05-07T08:00:17;0;0;
61815;PMS5003;57055;-35.296;149.168;2023-05-07T08:02:47;1;1;
61815;PMS5003;57055;-35.296;149.168;2023-05-07T08:05:15;1;1;
61815;PMS5003;57055;-35.296;149.168;2023-05-07T08:07:45;1;1;
61815;PMS5003;57055;-35.296;149.168;2023-05-07T08:10:14;0;0;
61815;PMS5003;57055;-35.296;149.168;2023-05-07T08:12:43;2;0;
61815;PMS5003;57055;-35.296;149.168;2023-05-07T08:15:12;1;1;
61815;PMS5003;57055;-35.296;149.168;2023-05-07T08:17:42;0;0;
61815;PMS5003;57055;-35.296;149.168;2023-05-07T08:20:11;2;1;
61815;PMS5003;57055;-35.296;149.168;2023-05-07T08:22:41;1;1;
61815;PMS5003;57055;-35.296;149.168;2023-05-07T08:25:10;0;0;
61815;PMS5003;57055;-35.296;149.168;2023-05-07T08:27:39;17;17;
61815;PMS5003;57055;-35.296;149.168;2023-05-07T08:30:08;21;21;
61815;PMS5003;57055;-35.296;149.168;2023-05-07T08:32:38;4;2;
61815;PMS5003;57055;-35.296;149.168;2023-05-07T08:35:07;5;5;
61815;PMS5003;57055;-35.296;149.168;2023-05-07T08:37:36;13;13;
61815;PMS5003;57055;-35.296;149.168;2023-05-07T08:40:06;7;7;
61815;PMS5003;57055;-35.296;149.168;2023-05-07T08:42:35;3;3;
61815;PMS5003;57055;-35.296;149.168;2023-05-07T08:45:06;2;2;
61815;PMS5003;57055;-35.296;149.168;2023-05-07T08:47:40;1;1;
61815;PMS5003;57055;-35.296;149.168;2023-05-07T08:50:11;2;2;
61815;PMS5003;57055;-35.296;149.168;2023-05-07T08:52:40;0;0;
61815;PMS5003;57055;-35.296;149.168;2023-05-07T08:55:09;1;1;
61815;PMS5003;57055;-35.296;149.168;2023-05-07T08:57:40;0;0;
61815;PMS5003;57055;-35.296;149.168;2023-05-07T09:00:09;1;1;
61815;PMS5003;57055;-35.296;149.168;2023-05-07T09:02:38;0;0;
61815;PMS5003;57055;-35.296;149.168;2023-05-07T09:05:07;0;0;
61815;PMS5003;57055;-35.296;149.168;2023-05-07T09:07:37;1;1;
61815;PMS5003;57055;-35.296;149.168;2023-05-07T09:10:06;0;0;
61815;PMS5003;57055;-35.296;149.168;2023-05-07T09:12:35;0;0;
61815;PMS5003;57055;-35.296;149.168;2023-05-07T09:15:05;2;2;
61815;PMS5003;57055;-35.296;149.168;2023-05-07T09:17:35;0;0;
61815;PMS5003;57055;-35.296;149.168;2023-05-07T09:20:05;1;1;
61815;PMS5003;57055;-35.296;149.168;2023-05-07T09:22:35;0;0;
61815;PMS5003;57055;-35.296;149.168;2023-05-07T09:25:05;2;2;
61815;PMS5003;57055;-35.296;149.168;2023-05-07T09:27:34;0;0;
61815;PMS5003;57055;-35.296;149.168;2023-05-07T09:30:04;1;1;
61815;PMS5003;57055;-35.296;149.168;2023-05-07T09:32:34;1;1;
61815;PMS5003;57055;-35.296;149.168;2023-05-07T09:35:04;3;1;
61815;PMS5003;57055;-35.296;149.168;2023-05-07T09:37:41;1;1;
61815;PMS5003;57055;-35.296;149.168;2023-05-07T09:40:11;0;0;
61815;PMS5003;57055;-35.296;149.168;2023-05-07T09:42:49;1;1;
61815;PMS5003;57055;-35.296;149.168;2023-05-07T09:45:21;1;1;
61815;PMS5003;57055;-35.296;149.168;2023-05-07T09:47:53;1;1;
61815;PMS5003;57055;-35.296;149.168;2023-05-07T09:50:25;3;3;
61815;PMS5003;57055;-35.296;149.168;2023-05-07T09:52:55;2;2;
61815;PMS5003;57055;-35.296;149.168;2023-05-07T09:55:25;2;1;
61815;PMS5003;57055;-35.296;149.168;2023-05-07T09:57:55;1;1;
61815;PMS5003;57055;-35.296;149.168;2023-05-07T10:00:24;1;1;
61815;PMS5003;57055;-35.296;149.168;2023-05-07T10:02:56;1;1;
61815;PMS5003;57055;-35.296;149.168;2023-05-07T10:05:27;1;1;
61815;PMS5003;57055;-35.296;149.168;2023-05-07T10:07:57;0;0;
61815;PMS5003;57055;-35.296;149.168;2023-05-07T10:10:28;3;3;
61815;PMS5003;57055;-35.296;149.168;2023-05-07T10:13:00;2;2;
61815;PMS5003;57055;-35.296;149.168;2023-05-07T10:15:30;2;2;
61815;PMS5003;57055;-35.296;149.168;2023-05-07T10:18:00;3;2;
61815;PMS5003;57055;-35.296;149.168;2023-05-07T10:20:30;3;3;
61815;PMS5003;57055;-35.296;149.168;2023-05-07T10:23:00;5;5;
61815;PMS5003;57055;-35.296;149.168;2023-05-07T10:25:34;4;4;
61815;PMS5003;57055;-35.296;149.168;2023-05-07T10:28:04;4;4;
61815;PMS5003;57055;-35.296;149.168;2023-05-07T10:30:38;3;3;
61815;PMS5003;57055;-35.296;149.168;2023-05-07T10:33:17;3;2;
61815;PMS5003;57055;-35.296;149.168;2023-05-07T10:35:52;2;2;
61815;PMS5003;57055;-35.296;149.168;2023-05-07T10:38:26;3;3;
61815;PMS5003;57055;-35.296;149.168;2023-05-07T10:40:56;2;2;
61815;PMS5003;57055;-35.296;149.168;2023-05-07T10:43:25;2;2;
61815;PMS5003;57055;-35.296;149.168;2023-05-07T10:46:14;4;4;
61815;PMS5003;57055;-35.296;149.168;2023-05-07T10:49:17;5;4;
61815;PMS5003;57055;-35.296;149.168;2023-05-07T10:51:45;3;3;
61815;PMS5003;57055;-35.296;149.168;2023-05-07T10:54:39;2;2;
61815;PMS5003;57055;-35.296;149.168;2023-05-07T10:57:33;4;2;
61815;PMS5003;57055;-35.296;149.168;2023-05-07T11:00:02;6;4;
61815;PMS5003;57055;-35.296;149.168;2023-05-07T11:03:07;3;3;
61815;PMS5003;57055;-35.296;149.168;2023-05-07T11:05:36;4;3;
61815;PMS5003;57055;-35.296;149.168;2023-05-07T11:08:06;5;3;
61815;PMS5003;57055;-35.296;149.168;2023-05-07T11:10:52;4;2;
61815;PMS5003;57055;-35.296;149.168;2023-05-07T11:13:41;4;4;
61815;PMS5003;57055;-35.296;149.168;2023-05-07T11:16:18;4;4;
61815;PMS5003;57055;-35.296;149.168;2023-05-07T11:18:48;3;2;
61815;PMS5003;57055;-35.296;149.168;2023-05-07T11:21:35;2;2;
61815;PMS5003;57055;-35.296;149.168;2023-05-07T11:24:05;3;3;
61815;PMS5003;57055;-35.296;149.168;2023-05-07T11:26:43;1;1;
61815;PMS5003;57055;-35.296;149.168;2023-05-07T11:29:14;3;3;
61815;PMS5003;57055;-35.296;149.168;2023-05-07T11:31:44;3;3;
61815;PMS5003;57055;-35.296;149.168;2023-05-07T11:34:21;1;1;
61815;PMS5003;57055;-35.296;149.168;2023-05-07T11:36:50;1;1;
61815;PMS5003;57055;-35.296;149.168;2023-05-07T11:39:25;1;1;
61815;PMS5003;57055;-35.296;149.168;2023-05-07T11:41:54;2;2;
61815;PMS5003;57055;-35.296;149.168;2023-05-07T11:44:23;2;2;
61815;PMS5003;57055;-35.296;149.168;2023-05-07T11:46:52;2;2;
61815;PMS5003;57055;-35.296;149.168;2023-05-07T11:49:24;2;2;
61815;PMS5003;57055;-35.296;149.168;2023-05-07T11:51:54;2;2;
61815;PMS5003;57055;-35.296;149.168;2023-05-07T11:54:23;1;1;
61815;PMS5003;57055;-35.296;149.168;2023-05-07T11:56:52;2;2;
61815;PMS5003;57055;-35.296;149.168;2023-05-07T11:59:24;1;1;
61815;PMS5003;57055;-35.296;149.168;2023-05-07T12:01:55;1;1;
61815;PMS5003;57055;-35.296;149.168;2023-05-07T12:04:25;1;1;
61815;PMS5003;57055;-35.296;149.168;2023-05-07T12:06:56;2;2;
61815;PMS5003;57055;-35.296;149.168;2023-05-07T12:09:25;1;1;
61815;PMS5003;57055;-35.296;149.168;2023-05-07T12:11:54;1;1;
61815;PMS5003;57055;-35.296;149.168;2023-05-07T12:14:27;1;1;
61815;PMS5003;57055;-35.296;149.168;2023-05-07T12:16:56;2;2;
61815;PMS5003;57055;-35.296;149.168;2023-05-07T12:19:25;1;1;
61815;PMS5003;57055;-35.296;149.168;2023-05-07T12:21:55;0;0;
61815;PMS5003;57055;-35.296;149.168;2023-05-07T12:24:25;1;1;
61815;PMS5003;57055;-35.296;149.168;2023-05-07T12:26:54;1;0;
61815;PMS5003;57055;-35.296;149.168;2023-05-07T12:29:22;1;1;
61815;PMS5003;57055;-35.296;149.168;2023-05-07T12:31:52;1;1;
61815;PMS5003;57055;-35.296;149.168;2023-05-07T12:34:21;1;1;
61815;PMS5003;57055;-35.296;149.168;2023-05-07T12:36:51;1;1;
61815;PMS5003;57055;-35.296;149.168;2023-05-07T12:39:20;0;0;
61815;PMS5003;57055;-35.296;149.168;2023-05-07T12:41:56;2;2;
61815;PMS5003;57055;-35.296;149.168;2023-05-07T12:44:29;1;1;
61815;PMS5003;57055;-35.296;149.168;2023-05-07T12:47:01;1;1;
61815;PMS5003;57055;-35.296;149.168;2023-05-07T12:49:31;3;3;
61815;PMS5003;57055;-35.296;149.168;2023-05-07T12:52:01;4;2;
61815;PMS5003;57055;-35.296;149.168;2023-05-07T12:54:31;2;2;
61815;PMS5003;57055;-35.296;149.168;2023-05-07T12:57:02;1;1;
61815;PMS5003;57055;-35.296;149.168;2023-05-07T12:59:32;0;0;
61815;PMS5003;57055;-35.296;149.168;2023-05-07T13:02:02;3;2;
61815;PMS5003;57055;-35.296;149.168;2023-05-07T13:04:32;1;1;
61815;PMS5003;57055;-35.296;149.168;2023-05-07T13:07:02;2;2;
61815;PMS5003;57055;-35.296;149.168;2023-05-07T13:09:31;1;1;
61815;PMS5003;57055;-35.296;149.168;2023-05-07T13:11:59;1;1;
61815;PMS5003;57055;-35.296;149.168;2023-05-07T13:14:28;1;1;
61815;PMS5003;57055;-35.296;149.168;2023-05-07T13:16:59;1;1;
61815;PMS5003;57055;-35.296;149.168;2023-05-07T13:19:28;0;0;
61815;PMS5003;57055;-35.296;149.168;2023-05-07T13:21:57;1;1;
61815;PMS5003;57055;-35.296;149.168;2023-05-07T13:24:26;0;0;
61815;PMS5003;57055;-35.296;149.168;2023-05-07T13:26:54;0;0;
61815;PMS5003;57055;-35.296;149.168;2023-05-07T13:29:23;0;0;
61815;PMS5003;57055;-35.296;149.168;2023-05-07T13:31:52;1;1;
61815;PMS5003;57055;-35.296;149.168;2023-05-07T13:34:21;0;0;
61815;PMS5003;57055;-35.296;149.168;2023-05-07T13:36:50;0;0;
61815;PMS5003;57055;-35.296;149.168;2023-05-07T13:39:19;0;0;
61815;PMS5003;57055;-35.296;149.168;2023-05-07T13:41:48;1;1;
61815;PMS5003;57055;-35.296;149.168;2023-05-07T13:44:17;0;0;
61815;PMS5003;57055;-35.296;149.168;2023-05-07T13:46:46;0;0;
61815;PMS5003;57055;-35.296;149.168;2023-05-07T13:49:15;0;0;
61815;PMS5003;57055;-35.296;149.168;2023-05-07T13:51:44;0;0;
61815;PMS5003;57055;-35.296;149.168;2023-05-07T13:54:13;0;0;
61815;PMS5003;57055;-35.296;149.168;2023-05-07T13:56:42;0;0;
61815;PMS5003;57055;-35.296;149.168;2023-05-07T13:59:11;0;0;
61815;PMS5003;57055;-35.296;149.168;2023-05-07T14:01:40;0;0;
61815;PMS5003;57055;-35.296;149.168;2023-05-07T14:04:09;0;0;
61815;PMS5003;57055;-35.296;149.168;2023-05-07T14:06:38;0;0;
61815;PMS5003;57055;-35.296;149.168;2023-05-07T14:09:07;1;1;
61815;PMS5003;57055;-35.296;149.168;2023-05-07T14:11:36;0;0;
61815;PMS5003;57055;-35.296;149.168;2023-05-07T14:14:05;0;0;
61815;PMS5003;57055;-35.296;149.168;2023-05-07T14:16:35;0;0;
61815;PMS5003;57055;-35.296;149.168;2023-05-07T14:19:05;0;0;
61815;PMS5003;57055;-35.296;149.168;2023-05-07T14:21:34;0;0;
61815;PMS5003;57055;-35.296;149.168;2023-05-07T14:24:03;0;0;
61815;PMS5003;57055;-35.296;149.168;2023-05-07T14:26:33;0;0;
61815;PMS5003;57055;-35.296;149.168;2023-05-07T14:29:02;0;0;
61815;PMS5003;57055;-35.296;149.168;2023-05-07T14:31:30;0;0;
61815;PMS5003;57055;-35.296;149.168;2023-05-07T14:33:59;0;0;
61815;PMS5003;57055;-35.296;149.168;2023-05-07T14:36:28;0;0;
61815;PMS5003;57055;-35.296;149.168;2023-05-07T14:38:57;0;0;
61815;PMS5003;57055;-35.296;149.168;2023-05-07T14:41:26;0;0;
61815;PMS5003;57055;-35.296;149.168;2023-05-07T14:43:55;0;0;
61815;PMS5003;57055;-35.296;149.168;2023-05-07T14:46:24;0;0;
61815;PMS5003;57055;-35.296;149.168;2023-05-07T14:48:53;0;0;
61815;PMS5003;57055;-35.296;149.168;2023-05-07T14:51:23;0;0;
61815;PMS5003;57055;-35.296;149.168;2023-05-07T14:53:52;0;0;
61815;PMS5003;57055;-35.296;149.168;2023-05-07T14:56:21;0;0;
61815;PMS5003;57055;-35.296;149.168;2023-05-07T14:58:50;0;0;
61815;PMS5003;57055;-35.296;149.168;2023-05-07T15:01:19;0;0;
61815;PMS5003;57055;-35.296;149.168;2023-05-07T15:03:48;0;0;
61815;PMS5003;57055;-35.296;149.168;2023-05-07T15:06:17;0;0;
61815;PMS5003;57055;-35.296;149.168;2023-05-07T15:08:46;0;0;
61815;PMS5003;57055;-35.296;149.168;2023-05-07T15:11:15;0;0;
61815;PMS5003;57055;-35.296;149.168;2023-05-07T15:13:44;0;0;
61815;PMS5003;57055;-35.296;149.168;2023-05-07T15:16:13;0;0;
61815;PMS5003;57055;-35.296;149.168;2023-05-07T15:18:42;0;0;
61815;PMS5003;57055;-35.296;149.168;2023-05-07T15:21:11;0;0;
61815;PMS5003;57055;-35.296;149.168;2023-05-07T15:23:40;0;0;
61815;PMS5003;57055;-35.296;149.168;2023-05-07T15:26:09;0;0;
61815;PMS5003;57055;-35.296;149.168;2023-05-07T15:28:38;0;0;
61815;PMS5003;57055;-35.296;149.168;2023-05-07T15:31:07;1;1;
61815;PMS5003;57055;-35.296;149.168;2023-05-07T15:33:36;0;0;
61815;PMS5003;57055;-35.296;149.168;2023-05-07T15:36:05;0;0;
61815;PMS5003;57055;-35.296;149.168;2023-05-07T15:38:35;0;0;
61815;PMS5003;57055;-35.296;149.168;2023-05-07T15:41:03;0;0;
61815;PMS5003;57055;-35.296;149.168;2023-05-07T15:43:32;0;0;
61815;PMS5003;57055;-35.296;149.168;2023-05-07T15:46:10;0;0;
61815;PMS5003;57055;-35.296;149.168;2023-05-07T15:48:39;0;0;
61815;PMS5003;57055;-35.296;149.168;2023-05-07T15:51:08;0;0;
61815;PMS5003;57055;-35.296;149.168;2023-05-07T15:53:38;0;0;
61815;PMS5003;57055;-35.296;149.168;2023-05-07T15:56:07;0;0;
61815;PMS5003;57055;-35.296;149.168;2023-05-07T15:58:36;0;0;
61815;PMS5003;57055;-35.296;149.168;2023-05-07T16:01:05;0;0;
61815;PMS5003;57055;-35.296;149.168;2023-05-07T16:03:34;0;0;
61815;PMS5003;57055;-35.296;149.168;2023-05-07T16:06:03;0;0;
61815;PMS5003;57055;-35.296;149.168;2023-05-07T16:08:32;0;0;
61815;PMS5003;57055;-35.296;149.168;2023-05-07T16:11:00;0;0;
61815;PMS5003;57055;-35.296;149.168;2023-05-07T16:13:29;0;0;
61815;PMS5003;57055;-35.296;149.168;2023-05-07T16:15:58;0;0;
61815;PMS5003;57055;-35.296;149.168;2023-05-07T16:18:27;0;0;